sensor_id;sensor_type;location;lat;lon;timestamp;temperature;humidity
11820;DHT22;5967;48.944;9.240;2022-11-20T00:00:45;4.70;99.90
11820;DHT22;5967;48.944;9.240;2022-11-20T00:03:11;4.80;99.90
11820;DHT22;5967;48.944;9.240;2022-11-20T00:05:37;5.00;99.90
11820;DHT22;5967;48.944;9.240;2022-11-20T00:08:03;4.80;99.90
11820;DHT22;5967;48.944;9.240;2022-11-20T00:10:28;4.70;99.90
11820;DHT22;5967;48.944;9.240;2022-11-20T00:12:54;4.70;99.90
11820;DHT22;5967;48.944;9.240;2022-11-20T00:15:20;4.90;99.90
11820;DHT22;5967;48.944;9.240;2022-11-20T00:17:45;4.80;99.90
11820;DHT22;5967;48.944;9.240;2022-11-20T00:20:11;4.80;99.90
11820;DHT22;5967;48.944;9.240;2022-11-20T00:22:37;4.80;99.90
11820;DHT22;5967;48.944;9.240;2022-11-20T00:25:03;4.80;99.90
11820;DHT22;5967;48.944;9.240;2022-11-20T00:27:28;4.80;99.90
11820;DHT22;5967;48.944;9.240;2022-11-20T00:29:54;4.90;99.90
11820;DHT22;5967;48.944;9.240;2022-11-20T00:32:20;4.80;99.90
11820;DHT22;5967;48.944;9.240;2022-11-20T00:34:45;4.90;99.90
11820;DHT22;5967;48.944;9.240;2022-11-20T00:37:11;4.90;99.90
11820;DHT22;5967;48.944;9.240;2022-11-20T00:39:36;4.90;99.90
11820;DHT22;5967;48.944;9.240;2022-11-20T00:42:02;5.00;99.90
11820;DHT22;5967;48.944;9.240;2022-11-20T00:44:28;4.90;99.90
11820;DHT22;5967;48.944;9.240;2022-11-20T00:46:53;4.80;99.90
11820;DHT22;5967;48.944;9.240;2022-11-20T00:49:19;4.80;99.90
11820;DHT22;5967;48.944;9.240;2022-11-20T00:51:44;4.70;99.90
11820;DHT22;5967;48.944;9.240;2022-11-20T00:54:10;4.70;99.90
11820;DHT22;5967;48.944;9.240;2022-11-20T00:56:37;4.70;99.90
11820;DHT22;5967;48.944;9.240;2022-11-20T00:59:02;4.70;99.90
11820;DHT22;5967;48.944;9.240;2022-11-20T01:01:28;4.70;99.90
11820;DHT22;5967;48.944;9.240;2022-11-20T01:03:59;4.70;99.90
11820;DHT22;5967;48.944;9.240;2022-11-20T01:06:26;4.70;99.90
11820;DHT22;5967;48.944;9.240;2022-11-20T01:08:54;4.80;99.90
11820;DHT22;5967;48.944;9.240;2022-11-20T01:11:29;4.80;99.90
11820;DHT22;5967;48.944;9.240;2022-11-20T01:13:56;4.80;99.90
11820;DHT22;5967;48.944;9.240;2022-11-20T01:16:28;4.90;99.90
11820;DHT22;5967;48.944;9.240;2022-11-20T01:18:57;4.90;99.90
11820;DHT22;5967;48.944;9.240;2022-11-20T01:21:26;4.90;99.90
11820;DHT22;5967;48.944;9.240;2022-11-20T01:23:53;4.90;99.90
11820;DHT22;5967;48.944;9.240;2022-11-20T01:26:21;5.00;99.90
11820;DHT22;5967;48.944;9.240;2022-11-20T01:28:47;5.00;99.90
11820;DHT22;5967;48.944;9.240;2022-11-20T01:31:21;5.00;99.90
11820;DHT22;5967;48.944;9.240;2022-11-20T01:33:49;5.00;99.90
11820;DHT22;5967;48.944;9.240;2022-11-20T01:36:17;5.10;99.90
11820;DHT22;5967;48.944;9.240;2022-11-20T01:38:43;5.00;99.90
11820;DHT22;5967;48.944;9.240;2022-11-20T01:41:11;5.00;99.90
11820;DHT22;5967;48.944;9.240;2022-11-20T01:43:56;5.20;99.90
11820;DHT22;5967;48.944;9.240;2022-11-20T01:46:22;5.00;99.90
11820;DHT22;5967;48.944;9.240;2022-11-20T01:48:56;5.00;99.90
11820;DHT22;5967;48.944;9.240;2022-11-20T01:54:01;5.00;99.90
11820;DHT22;5967;48.944;9.240;2022-11-20T01:56:31;5.00;99.90
11820;DHT22;5967;48.944;9.240;2022-11-20T01:59:02;5.00;99.90
11820;DHT22;5967;48.944;9.240;2022-11-20T02:01:29;5.20;99.90
11820;DHT22;5967;48.944;9.240;2022-11-20T02:03:55;5.10;99.90
11820;DHT22;5967;48.944;9.240;2022-11-20T02:06:27;5.10;99.90
11820;DHT22;5967;48.944;9.240;2022-11-20T02:08:54;5.10;99.90
11820;DHT22;5967;48.944;9.240;2022-11-20T02:11:20;5.10;99.90
11820;DHT22;5967;48.944;9.240;2022-11-20T02:13:47;5.10;99.90
11820;DHT22;5967;48.944;9.240;2022-11-20T02:16:21;5.20;99.90
11820;DHT22;5967;48.944;9.240;2022-11-20T02:18:48;5.10;99.90
11820;DHT22;5967;48.944;9.240;2022-11-20T02:21:39;5.20;99.90
11820;DHT22;5967;48.944;9.240;2022-11-20T02:24:16;5.20;99.90
11820;DHT22;5967;48.944;9.240;2022-11-20T02:26:53;5.20;99.90
11820;DHT22;5967;48.944;9.240;2022-11-20T02:29:50;5.20;99.90
11820;DHT22;5967;48.944;9.240;2022-11-20T02:32:24;5.20;99.90
11820;DHT22;5967;48.944;9.240;2022-11-20T02:34:50;5.20;99.90
11820;DHT22;5967;48.944;9.240;2022-11-20T02:37:17;5.20;99.90
11820;DHT22;5967;48.944;9.240;2022-11-20T02:39:45;5.20;99.90
11820;DHT22;5967;48.944;9.240;2022-11-20T02:42:11;5.20;99.90
11820;DHT22;5967;48.944;9.240;2022-11-20T02:44:37;5.20;99.90
11820;DHT22;5967;48.944;9.240;2022-11-20T02:47:02;5.20;99.90
11820;DHT22;5967;48.944;9.240;2022-11-20T02:49:28;5.30;99.90
11820;DHT22;5967;48.944;9.240;2022-11-20T02:51:54;5.30;99.90
11820;DHT22;5967;48.944;9.240;2022-11-20T02:54:19;5.30;99.90
11820;DHT22;5967;48.944;9.240;2022-11-20T02:56:45;5.30;99.90
11820;DHT22;5967;48.944;9.240;2022-11-20T02:59:10;5.30;99.90
11820;DHT22;5967;48.944;9.240;2022-11-20T03:01:36;5.30;99.90
11820;DHT22;5967;48.944;9.240;2022-11-20T03:04:02;5.30;99.90
11820;DHT22;5967;48.944;9.240;2022-11-20T03:06:28;5.30;99.90
11820;DHT22;5967;48.944;9.240;2022-11-20T03:08:53;5.30;99.90
11820;DHT22;5967;48.944;9.240;2022-11-20T03:11:19;5.30;99.90
11820;DHT22;5967;48.944;9.240;2022-11-20T03:13:45;5.40;99.90
11820;DHT22;5967;48.944;9.240;2022-11-20T03:16:16;5.40;99.90
11820;DHT22;5967;48.944;9.240;2022-11-20T03:18:42;5.40;99.90
11820;DHT22;5967;48.944;9.240;2022-11-20T03:21:09;5.40;99.90
11820;DHT22;5967;48.944;9.240;2022-11-20T03:23:36;5.50;99.90
11820;DHT22;5967;48.944;9.240;2022-11-20T03:26:10;5.50;99.90
11820;DHT22;5967;48.944;9.240;2022-11-20T03:28:36;5.50;99.90
11820;DHT22;5967;48.944;9.240;2022-11-20T03:31:09;5.50;99.90
11820;DHT22;5967;48.944;9.240;2022-11-20T03:33:36;5.70;99.90
11820;DHT22;5967;48.944;9.240;2022-11-20T03:36:07;5.50;99.90
11820;DHT22;5967;48.944;9.240;2022-11-20T03:38:33;5.50;99.90
11820;DHT22;5967;48.944;9.240;2022-11-20T03:41:03;5.60;99.90
11820;DHT22;5967;48.944;9.240;2022-11-20T03:43:28;5.60;99.90
11820;DHT22;5967;48.944;9.240;2022-11-20T03:45:54;5.60;99.90
11820;DHT22;5967;48.944;9.240;2022-11-20T03:48:20;5.60;99.90
11820;DHT22;5967;48.944;9.240;2022-11-20T03:50:45;5.60;99.90
11820;DHT22;5967;48.944;9.240;2022-11-20T03:53:13;5.60;99.90
11820;DHT22;5967;48.944;9.240;2022-11-20T03:55:39;5.70;99.90
11820;DHT22;5967;48.944;9.240;2022-11-20T03:58:04;5.70;99.90
11820;DHT22;5967;48.944;9.240;2022-11-20T04:00:30;5.90;99.90
11820;DHT22;5967;48.944;9.240;2022-11-20T04:02:59;5.70;99.90
11820;DHT22;5967;48.944;9.240;2022-11-20T04:05:25;5.70;99.90
11820;DHT22;5967;48.944;9.240;2022-11-20T04:07:51;5.70;99.90
11820;DHT22;5967;48.944;9.240;2022-11-20T04:10:16;5.70;99.90
11820;DHT22;5967;48.944;9.240;2022-11-20T04:12:42;5.70;99.90
11820;DHT22;5967;48.944;9.240;2022-11-20T04:15:08;5.70;99.90
11820;DHT22;5967;48.944;9.240;2022-11-20T04:17:34;5.70;99.90
11820;DHT22;5967;48.944;9.240;2022-11-20T04:19:59;5.80;99.90
11820;DHT22;5967;48.944;9.240;2022-11-20T04:22:25;5.80;99.90
11820;DHT22;5967;48.944;9.240;2022-11-20T04:24:51;5.80;99.90
11820;DHT22;5967;48.944;9.240;2022-11-20T04:27:16;5.80;99.90
11820;DHT22;5967;48.944;9.240;2022-11-20T04:29:42;5.80;99.90
11820;DHT22;5967;48.944;9.240;2022-11-20T04:32:07;5.80;99.90
11820;DHT22;5967;48.944;9.240;2022-11-20T04:34:33;5.80;99.90
11820;DHT22;5967;48.944;9.240;2022-11-20T04:36:59;5.90;99.90
11820;DHT22;5967;48.944;9.240;2022-11-20T04:39:24;5.80;99.90
11820;DHT22;5967;48.944;9.240;2022-11-20T04:41:50;5.80;99.90
11820;DHT22;5967;48.944;9.240;2022-11-20T04:44:35;5.90;99.90
11820;DHT22;5967;48.944;9.240;2022-11-20T04:47:01;5.90;99.90
11820;DHT22;5967;48.944;9.240;2022-11-20T04:49:26;5.80;99.90
11820;DHT22;5967;48.944;9.240;2022-11-20T04:51:55;5.90;99.90
11820;DHT22;5967;48.944;9.240;2022-11-20T04:54:21;6.00;99.90
11820;DHT22;5967;48.944;9.240;2022-11-20T04:56:50;5.90;99.90
11820;DHT22;5967;48.944;9.240;2022-11-20T04:59:16;5.80;99.90
11820;DHT22;5967;48.944;9.240;2022-11-20T05:01:41;5.90;99.90
11820;DHT22;5967;48.944;9.240;2022-11-20T05:04:07;5.90;99.90
11820;DHT22;5967;48.944;9.240;2022-11-20T05:06:33;5.80;99.90
11820;DHT22;5967;48.944;9.240;2022-11-20T05:08:59;5.80;99.90
11820;DHT22;5967;48.944;9.240;2022-11-20T05:11:26;5.80;99.90
11820;DHT22;5967;48.944;9.240;2022-11-20T05:13:54;5.80;99.90
11820;DHT22;5967;48.944;9.240;2022-11-20T05:16:24;5.80;99.90
11820;DHT22;5967;48.944;9.240;2022-11-20T05:18:51;5.80;99.90
11820;DHT22;5967;48.944;9.240;2022-11-20T05:21:17;5.80;99.90
11820;DHT22;5967;48.944;9.240;2022-11-20T05:23:44;5.80;99.90
11820;DHT22;5967;48.944;9.240;2022-11-20T05:26:16;5.80;99.90
11820;DHT22;5967;48.944;9.240;2022-11-20T05:28:42;5.80;99.90
11820;DHT22;5967;48.944;9.240;2022-11-20T05:31:13;5.80;99.90
11820;DHT22;5967;48.944;9.240;2022-11-20T05:33:41;5.80;99.90
11820;DHT22;5967;48.944;9.240;2022-11-20T05:36:08;5.90;99.90
11820;DHT22;5967;48.944;9.240;2022-11-20T05:38:34;5.80;99.90
11820;DHT22;5967;48.944;9.240;2022-11-20T05:41:08;5.80;99.90
11820;DHT22;5967;48.944;9.240;2022-11-20T05:43:35;5.80;99.90
11820;DHT22;5967;48.944;9.240;2022-11-20T05:46:01;5.80;99.90
11820;DHT22;5967;48.944;9.240;2022-11-20T05:48:27;5.80;99.90
11820;DHT22;5967;48.944;9.240;2022-11-20T05:50:52;5.80;99.90
11820;DHT22;5967;48.944;9.240;2022-11-20T05:53:18;5.80;99.90
11820;DHT22;5967;48.944;9.240;2022-11-20T05:55:43;5.90;99.90
11820;DHT22;5967;48.944;9.240;2022-11-20T05:58:09;5.80;99.90
11820;DHT22;5967;48.944;9.240;2022-11-20T06:00:35;6.00;99.90
11820;DHT22;5967;48.944;9.240;2022-11-20T06:03:01;5.80;99.90
11820;DHT22;5967;48.944;9.240;2022-11-20T06:05:26;5.80;99.90
11820;DHT22;5967;48.944;9.240;2022-11-20T06:07:52;5.80;99.90
11820;DHT22;5967;48.944;9.240;2022-11-20T06:10:17;5.80;99.90
11820;DHT22;5967;48.944;9.240;2022-11-20T06:12:43;5.80;99.90
11820;DHT22;5967;48.944;9.240;2022-11-20T06:15:09;5.80;99.90
11820;DHT22;5967;48.944;9.240;2022-11-20T06:17:34;5.80;99.90
11820;DHT22;5967;48.944;9.240;2022-11-20T06:20:00;5.80;99.90
11820;DHT22;5967;48.944;9.240;2022-11-20T06:22:26;5.90;99.90
11820;DHT22;5967;48.944;9.240;2022-11-20T06:24:51;5.80;99.90
11820;DHT22;5967;48.944;9.240;2022-11-20T06:27:17;5.90;99.90
11820;DHT22;5967;48.944;9.240;2022-11-20T06:29:43;5.90;99.90
11820;DHT22;5967;48.944;9.240;2022-11-20T06:32:09;5.80;99.90
11820;DHT22;5967;48.944;9.240;2022-11-20T06:34:34;5.90;99.90
11820;DHT22;5967;48.944;9.240;2022-11-20T06:37:00;5.90;99.90
11820;DHT22;5967;48.944;9.240;2022-11-20T06:39:25;5.80;99.90
11820;DHT22;5967;48.944;9.240;2022-11-20T06:41:51;6.00;99.90
11820;DHT22;5967;48.944;9.240;2022-11-20T06:44:16;5.90;99.90
11820;DHT22;5967;48.944;9.240;2022-11-20T06:46:42;5.90;99.90
11820;DHT22;5967;48.944;9.240;2022-11-20T06:49:08;5.90;99.90
11820;DHT22;5967;48.944;9.240;2022-11-20T06:51:33;5.90;99.90
11820;DHT22;5967;48.944;9.240;2022-11-20T06:53:59;5.90;99.90
11820;DHT22;5967;48.944;9.240;2022-11-20T06:56:26;5.90;99.90
11820;DHT22;5967;48.944;9.240;2022-11-20T06:58:51;5.90;99.90
11820;DHT22;5967;48.944;9.240;2022-11-20T07:01:17;6.00;99.90
11820;DHT22;5967;48.944;9.240;2022-11-20T07:03:43;6.10;99.90
11820;DHT22;5967;48.944;9.240;2022-11-20T07:06:09;6.00;99.90
11820;DHT22;5967;48.944;9.240;2022-11-20T07:08:34;6.00;99.90
11820;DHT22;5967;48.944;9.240;2022-11-20T07:11:03;6.00;99.90
11820;DHT22;5967;48.944;9.240;2022-11-20T07:13:29;6.00;99.90
11820;DHT22;5967;48.944;9.240;2022-11-20T07:15:58;6.00;99.90
11820;DHT22;5967;48.944;9.240;2022-11-20T07:18:24;6.10;99.90
11820;DHT22;5967;48.944;9.240;2022-11-20T07:20:49;6.10;99.90
11820;DHT22;5967;48.944;9.240;2022-11-20T07:23:15;6.10;99.90
11820;DHT22;5967;48.944;9.240;2022-11-20T07:25:40;6.20;99.90
11820;DHT22;5967;48.944;9.240;2022-11-20T07:28:06;6.20;99.90
11820;DHT22;5967;48.944;9.240;2022-11-20T07:30:32;6.40;99.90
11820;DHT22;5967;48.944;9.240;2022-11-20T07:32:57;6.30;99.90
11820;DHT22;5967;48.944;9.240;2022-11-20T07:35:24;6.30;99.90
11820;DHT22;5967;48.944;9.240;2022-11-20T07:37:49;6.30;99.90
11820;DHT22;5967;48.944;9.240;2022-11-20T07:40:16;6.40;99.90
11820;DHT22;5967;48.944;9.240;2022-11-20T07:42:52;6.40;99.90
11820;DHT22;5967;48.944;9.240;2022-11-20T07:45:19;6.40;99.90
11820;DHT22;5967;48.944;9.240;2022-11-20T07:47:45;6.40;99.90
11820;DHT22;5967;48.944;9.240;2022-11-20T07:50:11;6.40;99.90
11820;DHT22;5967;48.944;9.240;2022-11-20T07:52:37;6.40;99.90
11820;DHT22;5967;48.944;9.240;2022-11-20T07:55:02;6.40;99.90
11820;DHT22;5967;48.944;9.240;2022-11-20T07:57:28;6.40;99.90
11820;DHT22;5967;48.944;9.240;2022-11-20T07:59:53;6.40;99.90
11820;DHT22;5967;48.944;9.240;2022-11-20T08:02:19;6.40;99.90
11820;DHT22;5967;48.944;9.240;2022-11-20T08:04:44;6.40;99.90
11820;DHT22;5967;48.944;9.240;2022-11-20T08:07:10;6.40;99.90
11820;DHT22;5967;48.944;9.240;2022-11-20T08:09:36;6.40;99.90
11820;DHT22;5967;48.944;9.240;2022-11-20T08:12:01;6.50;99.90
11820;DHT22;5967;48.944;9.240;2022-11-20T08:14:45;6.50;99.90
11820;DHT22;5967;48.944;9.240;2022-11-20T08:17:11;6.60;99.90
11820;DHT22;5967;48.944;9.240;2022-11-20T08:19:37;6.70;99.90
11820;DHT22;5967;48.944;9.240;2022-11-20T08:22:03;6.70;99.90
11820;DHT22;5967;48.944;9.240;2022-11-20T08:24:28;6.70;99.90
11820;DHT22;5967;48.944;9.240;2022-11-20T08:26:56;6.80;99.90
11820;DHT22;5967;48.944;9.240;2022-11-20T08:29:22;6.80;99.90
11820;DHT22;5967;48.944;9.240;2022-11-20T08:31:48;6.80;99.90
11820;DHT22;5967;48.944;9.240;2022-11-20T08:34:13;6.80;99.90
11820;DHT22;5967;48.944;9.240;2022-11-20T08:36:39;6.80;99.90
11820;DHT22;5967;48.944;9.240;2022-11-20T08:39:04;6.80;99.90
11820;DHT22;5967;48.944;9.240;2022-11-20T08:41:30;6.80;99.90
11820;DHT22;5967;48.944;9.240;2022-11-20T08:44:03;6.90;99.90
11820;DHT22;5967;48.944;9.240;2022-11-20T08:46:40;6.80;99.90
11820;DHT22;5967;48.944;9.240;2022-11-20T08:49:08;6.80;99.90
11820;DHT22;5967;48.944;9.240;2022-11-20T08:51:34;6.90;99.90
11820;DHT22;5967;48.944;9.240;2022-11-20T08:54:00;6.90;99.90
11820;DHT22;5967;48.944;9.240;2022-11-20T08:56:26;6.90;99.90
11820;DHT22;5967;48.944;9.240;2022-11-20T08:58:51;6.90;99.90
11820;DHT22;5967;48.944;9.240;2022-11-20T09:01:18;6.90;99.90
11820;DHT22;5967;48.944;9.240;2022-11-20T09:03:44;7.00;99.90
11820;DHT22;5967;48.944;9.240;2022-11-20T09:06:10;7.00;99.90
11820;DHT22;5967;48.944;9.240;2022-11-20T09:08:35;7.00;99.90
11820;DHT22;5967;48.944;9.240;2022-11-20T09:11:04;7.00;99.90
11820;DHT22;5967;48.944;9.240;2022-11-20T09:13:31;7.00;99.90
11820;DHT22;5967;48.944;9.240;2022-11-20T09:16:00;7.00;99.90
11820;DHT22;5967;48.944;9.240;2022-11-20T09:18:27;7.00;99.90
11820;DHT22;5967;48.944;9.240;2022-11-20T09:21:01;7.00;99.90
11820;DHT22;5967;48.944;9.240;2022-11-20T09:23:27;7.00;99.90
11820;DHT22;5967;48.944;9.240;2022-11-20T09:25:56;7.00;99.90
11820;DHT22;5967;48.944;9.240;2022-11-20T09:28:25;7.10;99.90
11820;DHT22;5967;48.944;9.240;2022-11-20T09:30:50;7.10;99.90
11820;DHT22;5967;48.944;9.240;2022-11-20T09:33:17;7.10;99.90
11820;DHT22;5967;48.944;9.240;2022-11-20T09:35:43;7.10;99.90
11820;DHT22;5967;48.944;9.240;2022-11-20T09:38:10;7.10;99.90
11820;DHT22;5967;48.944;9.240;2022-11-20T09:41:03;7.10;99.90
11820;DHT22;5967;48.944;9.240;2022-11-20T09:46:25;7.20;99.90
11820;DHT22;5967;48.944;9.240;2022-11-20T09:49:11;7.20;99.90
11820;DHT22;5967;48.944;9.240;2022-11-20T09:54:28;7.30;99.90
11820;DHT22;5967;48.944;9.240;2022-11-20T09:57:10;7.30;99.90
11820;DHT22;5967;48.944;9.240;2022-11-20T09:59:54;7.40;99.90
11820;DHT22;5967;48.944;9.240;2022-11-20T10:05:17;7.50;99.90
11820;DHT22;5967;48.944;9.240;2022-11-20T10:10:46;7.60;99.90
11820;DHT22;5967;48.944;9.240;2022-11-20T10:29:34;7.50;99.90
11820;DHT22;5967;48.944;9.240;2022-11-20T10:32:03;7.50;99.90
11820;DHT22;5967;48.944;9.240;2022-11-20T10:37:29;7.50;99.90
11820;DHT22;5967;48.944;9.240;2022-11-20T10:45:53;7.70;99.90
11820;DHT22;5967;48.944;9.240;2022-11-20T10:48:26;7.60;99.90
11820;DHT22;5967;48.944;9.240;2022-11-20T10:51:14;7.60;99.90
11820;DHT22;5967;48.944;9.240;2022-11-20T10:53:51;7.60;99.90
11820;DHT22;5967;48.944;9.240;2022-11-20T10:56:41;7.70;99.90
11820;DHT22;5967;48.944;9.240;2022-11-20T10:59:39;7.70;99.90
11820;DHT22;5967;48.944;9.240;2022-11-20T11:02:24;7.80;99.90
11820;DHT22;5967;48.944;9.240;2022-11-20T11:04:52;7.90;99.90
11820;DHT22;5967;48.944;9.240;2022-11-20T11:07:30;7.90;99.90
11820;DHT22;5967;48.944;9.240;2022-11-20T11:09:57;8.00;99.90
11820;DHT22;5967;48.944;9.240;2022-11-20T11:12:25;8.00;99.90
11820;DHT22;5967;48.944;9.240;2022-11-20T11:14:56;8.00;99.90
11820;DHT22;5967;48.944;9.240;2022-11-20T11:17:32;7.90;99.90
11820;DHT22;5967;48.944;9.240;2022-11-20T11:22:33;7.80;99.90
11820;DHT22;5967;48.944;9.240;2022-11-20T11:24:59;7.80;99.90
11820;DHT22;5967;48.944;9.240;2022-11-20T11:27:25;7.80;99.90
11820;DHT22;5967;48.944;9.240;2022-11-20T11:30:12;7.80;99.90
11820;DHT22;5967;48.944;9.240;2022-11-20T11:32:38;7.80;99.90
11820;DHT22;5967;48.944;9.240;2022-11-20T11:35:06;7.90;99.90
11820;DHT22;5967;48.944;9.240;2022-11-20T11:37:37;7.90;99.90
11820;DHT22;5967;48.944;9.240;2022-11-20T11:40:05;8.00;99.90
11820;DHT22;5967;48.944;9.240;2022-11-20T11:42:31;8.20;99.90
11820;DHT22;5967;48.944;9.240;2022-11-20T11:44:59;8.30;99.90
11820;DHT22;5967;48.944;9.240;2022-11-20T11:52:49;9.20;99.90
11820;DHT22;5967;48.944;9.240;2022-11-20T11:55:48;9.50;99.90
11820;DHT22;5967;48.944;9.240;2022-11-20T12:01:02;10.00;99.90
11820;DHT22;5967;48.944;9.240;2022-11-20T12:03:37;9.90;99.90
11820;DHT22;5967;48.944;9.240;2022-11-20T12:06:16;9.90;99.90
11820;DHT22;5967;48.944;9.240;2022-11-20T12:11:36;10.10;99.90
11820;DHT22;5967;48.944;9.240;2022-11-20T12:14:29;10.10;99.90
11820;DHT22;5967;48.944;9.240;2022-11-20T12:16:55;10.10;99.90
11820;DHT22;5967;48.944;9.240;2022-11-20T12:19:23;10.00;99.90
11820;DHT22;5967;48.944;9.240;2022-11-20T12:25:04;9.40;99.90
11820;DHT22;5967;48.944;9.240;2022-11-20T12:30:03;9.10;99.90
11820;DHT22;5967;48.944;9.240;2022-11-20T12:35:42;9.20;99.90
11820;DHT22;5967;48.944;9.240;2022-11-20T12:44:28;9.30;99.90
11820;DHT22;5967;48.944;9.240;2022-11-20T12:50:42;9.60;99.90
11820;DHT22;5967;48.944;9.240;2022-11-20T12:53:28;9.80;99.90
11820;DHT22;5967;48.944;9.240;2022-11-20T13:01:44;10.10;99.90
11820;DHT22;5967;48.944;9.240;2022-11-20T13:07:11;10.30;99.90
11820;DHT22;5967;48.944;9.240;2022-11-20T13:09:43;10.30;99.90
11820;DHT22;5967;48.944;9.240;2022-11-20T13:12:40;10.20;99.90
11820;DHT22;5967;48.944;9.240;2022-11-20T13:18:01;10.10;99.90
11820;DHT22;5967;48.944;9.240;2022-11-20T13:20:29;10.10;99.90
11820;DHT22;5967;48.944;9.240;2022-11-20T13:22:56;10.00;99.90
11820;DHT22;5967;48.944;9.240;2022-11-20T13:25:33;9.80;99.90
11820;DHT22;5967;48.944;9.240;2022-11-20T13:30:47;9.70;99.90
11820;DHT22;5967;48.944;9.240;2022-11-20T13:33:29;9.50;99.90
11820;DHT22;5967;48.944;9.240;2022-11-20T13:35:58;9.50;99.90
11820;DHT22;5967;48.944;9.240;2022-11-20T13:38:24;9.40;99.90
11820;DHT22;5967;48.944;9.240;2022-11-20T13:40:58;9.40;99.90
11820;DHT22;5967;48.944;9.240;2022-11-20T13:43:43;9.30;99.90
11820;DHT22;5967;48.944;9.240;2022-11-20T13:46:10;9.30;99.90
11820;DHT22;5967;48.944;9.240;2022-11-20T13:48:39;9.30;99.90
11820;DHT22;5967;48.944;9.240;2022-11-20T13:54:14;9.30;99.90
11820;DHT22;5967;48.944;9.240;2022-11-20T13:56:53;9.40;99.90
11820;DHT22;5967;48.944;9.240;2022-11-20T13:59:43;9.40;99.90
11820;DHT22;5967;48.944;9.240;2022-11-20T14:02:16;9.40;99.90
11820;DHT22;5967;48.944;9.240;2022-11-20T14:04:47;9.30;99.90
11820;DHT22;5967;48.944;9.240;2022-11-20T14:07:14;9.20;99.90
11820;DHT22;5967;48.944;9.240;2022-11-20T14:09:50;9.20;99.90
11820;DHT22;5967;48.944;9.240;2022-11-20T14:12:19;9.20;99.90
11820;DHT22;5967;48.944;9.240;2022-11-20T14:14:50;9.10;99.90
11820;DHT22;5967;48.944;9.240;2022-11-20T14:17:31;9.00;99.90
11820;DHT22;5967;48.944;9.240;2022-11-20T14:20:00;9.10;99.90
11820;DHT22;5967;48.944;9.240;2022-11-20T14:22:27;9.00;99.90
11820;DHT22;5967;48.944;9.240;2022-11-20T14:25:03;9.00;99.90
11820;DHT22;5967;48.944;9.240;2022-11-20T14:27:33;8.90;99.90
11820;DHT22;5967;48.944;9.240;2022-11-20T14:30:01;8.80;99.90
11820;DHT22;5967;48.944;9.240;2022-11-20T14:32:29;8.70;99.90
11820;DHT22;5967;48.944;9.240;2022-11-20T14:35:01;8.70;99.90
11820;DHT22;5967;48.944;9.240;2022-11-20T14:37:29;8.60;99.90
11820;DHT22;5967;48.944;9.240;2022-11-20T14:39:57;8.50;99.90
11820;DHT22;5967;48.944;9.240;2022-11-20T14:42:28;8.50;99.90
11820;DHT22;5967;48.944;9.240;2022-11-20T14:44:58;8.40;99.90
11820;DHT22;5967;48.944;9.240;2022-11-20T14:47:29;8.30;99.90
11820;DHT22;5967;48.944;9.240;2022-11-20T14:49:57;8.30;99.90
11820;DHT22;5967;48.944;9.240;2022-11-20T14:52:27;8.20;99.90
11820;DHT22;5967;48.944;9.240;2022-11-20T14:54:57;8.10;99.90
11820;DHT22;5967;48.944;9.240;2022-11-20T14:57:34;8.10;99.90
11820;DHT22;5967;48.944;9.240;2022-11-20T15:00:06;8.00;99.90
11820;DHT22;5967;48.944;9.240;2022-11-20T15:02:32;7.90;99.90
11820;DHT22;5967;48.944;9.240;2022-11-20T15:04:59;7.90;99.90
11820;DHT22;5967;48.944;9.240;2022-11-20T15:07:43;7.80;99.90
11820;DHT22;5967;48.944;9.240;2022-11-20T15:10:31;7.70;99.90
11820;DHT22;5967;48.944;9.240;2022-11-20T15:13:05;7.70;99.90
11820;DHT22;5967;48.944;9.240;2022-11-20T15:18:20;7.50;99.90
11820;DHT22;5967;48.944;9.240;2022-11-20T15:20:47;7.40;99.90
11820;DHT22;5967;48.944;9.240;2022-11-20T15:23:15;7.40;99.90
11820;DHT22;5967;48.944;9.240;2022-11-20T15:25:43;7.30;99.90
11820;DHT22;5967;48.944;9.240;2022-11-20T15:28:21;7.30;99.90
11820;DHT22;5967;48.944;9.240;2022-11-20T15:30:49;7.20;99.90
11820;DHT22;5967;48.944;9.240;2022-11-20T15:33:16;7.20;99.90
11820;DHT22;5967;48.944;9.240;2022-11-20T15:35:42;7.20;99.90
11820;DHT22;5967;48.944;9.240;2022-11-20T15:38:08;7.10;99.90
11820;DHT22;5967;48.944;9.240;2022-11-20T15:40:34;7.10;99.90
11820;DHT22;5967;48.944;9.240;2022-11-20T15:43:00;7.00;99.90
11820;DHT22;5967;48.944;9.240;2022-11-20T15:48:04;6.90;99.90
11820;DHT22;5967;48.944;9.240;2022-11-20T15:50:37;6.90;99.90
11820;DHT22;5967;48.944;9.240;2022-11-20T15:53:04;6.90;99.90
11820;DHT22;5967;48.944;9.240;2022-11-20T15:55:30;6.90;99.90
11820;DHT22;5967;48.944;9.240;2022-11-20T15:57:56;6.80;99.90
11820;DHT22;5967;48.944;9.240;2022-11-20T16:00:22;6.80;99.90
11820;DHT22;5967;48.944;9.240;2022-11-20T16:02:48;6.80;99.90
11820;DHT22;5967;48.944;9.240;2022-11-20T16:05:14;6.80;99.90
11820;DHT22;5967;48.944;9.240;2022-11-20T16:07:40;6.80;99.90
11820;DHT22;5967;48.944;9.240;2022-11-20T16:10:06;6.80;99.90
11820;DHT22;5967;48.944;9.240;2022-11-20T16:12:31;6.80;99.90
11820;DHT22;5967;48.944;9.240;2022-11-20T16:15:16;6.90;99.90
11820;DHT22;5967;48.944;9.240;2022-11-20T16:18:00;6.80;99.90
11820;DHT22;5967;48.944;9.240;2022-11-20T16:20:25;6.80;99.90
11820;DHT22;5967;48.944;9.240;2022-11-20T16:22:51;6.70;99.90
11820;DHT22;5967;48.944;9.240;2022-11-20T16:25:16;6.80;99.90
11820;DHT22;5967;48.944;9.240;2022-11-20T16:27:42;6.90;99.90
11820;DHT22;5967;48.944;9.240;2022-11-20T16:30:08;6.70;99.90
11820;DHT22;5967;48.944;9.240;2022-11-20T16:32:34;6.70;99.90
11820;DHT22;5967;48.944;9.240;2022-11-20T16:35:00;6.80;99.90
11820;DHT22;5967;48.944;9.240;2022-11-20T16:37:25;6.70;99.90
11820;DHT22;5967;48.944;9.240;2022-11-20T16:39:51;6.70;99.90
11820;DHT22;5967;48.944;9.240;2022-11-20T16:42:16;6.70;99.90
11820;DHT22;5967;48.944;9.240;2022-11-20T16:44:45;6.70;99.90
11820;DHT22;5967;48.944;9.240;2022-11-20T16:47:11;6.70;99.90
11820;DHT22;5967;48.944;9.240;2022-11-20T16:49:37;6.80;99.90
11820;DHT22;5967;48.944;9.240;2022-11-20T16:52:03;6.80;99.90
11820;DHT22;5967;48.944;9.240;2022-11-20T16:54:28;6.80;99.90
11820;DHT22;5967;48.944;9.240;2022-11-20T16:56:54;6.80;99.90
11820;DHT22;5967;48.944;9.240;2022-11-20T16:59:19;6.80;99.90
11820;DHT22;5967;48.944;9.240;2022-11-20T17:01:45;6.80;99.90
11820;DHT22;5967;48.944;9.240;2022-11-20T17:04:11;6.80;99.90
11820;DHT22;5967;48.944;9.240;2022-11-20T17:06:39;6.70;99.90
11820;DHT22;5967;48.944;9.240;2022-11-20T17:09:06;6.80;99.90
11820;DHT22;5967;48.944;9.240;2022-11-20T17:11:34;6.80;99.90
11820;DHT22;5967;48.944;9.240;2022-11-20T17:14:00;6.80;99.90
11820;DHT22;5967;48.944;9.240;2022-11-20T17:16:28;6.70;99.90
11820;DHT22;5967;48.944;9.240;2022-11-20T17:18:55;6.80;99.90
11820;DHT22;5967;48.944;9.240;2022-11-20T17:21:21;6.80;99.90
11820;DHT22;5967;48.944;9.240;2022-11-20T17:23:47;6.80;99.90
11820;DHT22;5967;48.944;9.240;2022-11-20T17:26:20;6.80;99.90
11820;DHT22;5967;48.944;9.240;2022-11-20T17:28:53;6.80;99.90
11820;DHT22;5967;48.944;9.240;2022-11-20T17:31:18;6.70;99.90
11820;DHT22;5967;48.944;9.240;2022-11-20T17:33:45;6.80;99.90
11820;DHT22;5967;48.944;9.240;2022-11-20T17:36:14;6.70;99.90
11820;DHT22;5967;48.944;9.240;2022-11-20T17:38:41;6.70;99.90
11820;DHT22;5967;48.944;9.240;2022-11-20T17:41:12;6.70;99.90
11820;DHT22;5967;48.944;9.240;2022-11-20T17:43:38;6.70;99.90
11820;DHT22;5967;48.944;9.240;2022-11-20T17:46:10;6.70;99.90